createdAt,value
2022-08-10T00:01:52.254Z,99.90
2022-08-10T00:04:22.421Z,99.90
2022-08-10T00:06:53.711Z,99.90
2022-08-10T00:09:24.357Z,99.90
2022-08-10T00:11:53.002Z,99.90
2022-08-10T00:14:21.446Z,99.90
2022-08-10T00:16:50.006Z,99.90
2022-08-10T00:19:18.555Z,99.90
2022-08-10T00:21:47.715Z,99.90
2022-08-10T00:24:16.402Z,99.90
2022-08-10T00:28:01.638Z,99.90
2022-08-10T00:29:35.894Z,99.90
2022-08-10T00:32:06.736Z,99.90
2022-08-10T00:34:36.045Z,99.90
2022-08-10T00:37:04.407Z,99.90
2022-08-10T00:39:36.148Z,99.90
2022-08-10T00:42:10.941Z,99.90
2022-08-10T00:44:44.461Z,99.90
2022-08-10T00:47:35.504Z,99.90
2022-08-10T00:50:06.015Z,99.90
2022-08-10T00:52:35.892Z,99.90
2022-08-10T00:55:07.197Z,99.90
2022-08-10T00:57:39.464Z,99.90
2022-08-10T01:00:10.844Z,99.90
2022-08-10T01:02:40.685Z,99.90
2022-08-10T01:05:11.377Z,99.90
2022-08-10T01:08:16.303Z,99.90
2022-08-10T01:10:53.493Z,99.90
2022-08-10T01:13:29.401Z,99.90
2022-08-10T01:16:05.316Z,99.90
2022-08-10T01:18:44.423Z,99.90
2022-08-10T01:21:39.225Z,99.90
2022-08-10T01:24:57.841Z,99.90
2022-08-10T01:27:33.684Z,99.90
2022-08-10T01:30:06.319Z,99.90
2022-08-10T01:32:58.145Z,99.90
2022-08-10T01:35:34.352Z,99.90
2022-08-10T01:38:07.934Z,99.90
2022-08-10T01:40:41.446Z,99.90
2022-08-10T01:43:18.594Z,99.90
2022-08-10T01:45:54.329Z,99.90
2022-08-10T01:48:28.776Z,99.90
2022-08-10T01:51:12.096Z,99.90
2022-08-10T01:53:44.203Z,99.90
2022-08-10T01:56:16.516Z,99.90
2022-08-10T01:58:47.420Z,99.90
2022-08-10T02:01:28.241Z,99.90
2022-08-10T02:04:05.274Z,99.90
2022-08-10T02:06:40.142Z,99.90
2022-08-10T02:09:10.181Z,99.90
2022-08-10T02:12:05.133Z,99.90
2022-08-10T02:14:35.548Z,99.90
2022-08-10T02:17:09.160Z,99.90
2022-08-10T02:20:01.490Z,99.90
2022-08-10T02:22:38.173Z,99.90
2022-08-10T02:25:09.505Z,99.90
2022-08-10T02:28:01.350Z,99.90
2022-08-10T02:30:31.633Z,99.90
2022-08-10T02:33:05.833Z,99.90
2022-08-10T02:35:54.114Z,99.90
2022-08-10T02:38:59.205Z,99.90
2022-08-10T02:45:14.170Z,99.90
2022-08-10T02:45:19.857Z,99.90
2022-08-10T02:47:23.314Z,99.90
2022-08-10T02:50:01.072Z,99.90
2022-08-10T02:52:38.492Z,99.90
2022-08-10T02:55:18.121Z,99.90
2022-08-10T02:58:13.861Z,99.90
2022-08-10T03:00:47.426Z,99.90
2022-08-10T03:03:21.099Z,99.90
2022-08-10T03:05:57.022Z,99.90
2022-08-10T03:08:29.603Z,99.90
2022-08-10T03:11:04.008Z,99.90
2022-08-10T03:13:34.796Z,99.90
2022-08-10T03:16:05.007Z,99.90
2022-08-10T03:18:34.239Z,99.90
2022-08-10T03:21:10.094Z,99.90
2022-08-10T03:23:42.893Z,99.90
2022-08-10T03:26:12.781Z,99.90
2022-08-10T03:28:42.381Z,99.90
2022-08-10T03:31:11.017Z,99.90
2022-08-10T03:33:42.209Z,99.90
2022-08-10T03:36:43.071Z,99.90
2022-08-10T03:39:02.307Z,99.90
2022-08-10T03:41:39.489Z,99.90
2022-08-10T03:44:10.840Z,99.90
2022-08-10T03:46:45.956Z,99.90
2022-08-10T03:49:19.498Z,99.90
2022-08-10T03:51:52.076Z,99.90
2022-08-10T03:54:25.210Z,99.90
2022-08-10T03:57:06.657Z,99.90
2022-08-10T03:59:45.916Z,99.90
2022-08-10T04:02:46.909Z,99.90
2022-08-10T04:05:08.827Z,99.90
2022-08-10T04:07:41.505Z,99.90
2022-08-10T04:10:15.726Z,99.90
2022-08-10T04:12:44.341Z,99.90
2022-08-10T04:15:15.677Z,99.90
2022-08-10T04:17:56.819Z,99.90
2022-08-10T04:20:56.478Z,99.90
2022-08-10T04:23:31.763Z,99.90
2022-08-10T04:26:02.469Z,99.90
2022-08-10T04:28:33.777Z,99.90
2022-08-10T04:31:05.460Z,99.90
2022-08-10T04:33:36.221Z,99.90
2022-08-10T04:36:06.535Z,99.90
2022-08-10T04:38:38.200Z,99.90
2022-08-10T04:41:07.626Z,99.90
2022-08-10T04:43:35.883Z,99.90
2022-08-10T04:46:04.165Z,99.90
2022-08-10T04:48:56.297Z,99.90
2022-08-10T04:51:28.200Z,99.90
2022-08-10T04:54:05.945Z,99.90
2022-08-10T04:56:39.713Z,99.90
2022-08-10T04:59:10.274Z,99.90
2022-08-10T05:02:29.516Z,99.90
2022-08-10T05:04:35.528Z,99.90
2022-08-10T05:07:09.216Z,99.90
2022-08-10T05:10:03.583Z,99.90
2022-08-10T05:12:29.454Z,99.90
2022-08-10T05:14:58.482Z,99.90
2022-08-10T05:17:27.708Z,99.90
2022-08-10T05:20:02.822Z,99.90
2022-08-10T05:22:36.502Z,99.90
2022-08-10T05:25:08.958Z,99.90
2022-08-10T05:27:37.964Z,99.90
2022-08-10T05:30:09.577Z,99.90
2022-08-10T05:32:57.639Z,99.90
2022-08-10T05:35:51.794Z,99.90
2022-08-10T05:38:19.508Z,99.90
2022-08-10T05:40:51.644Z,99.90
2022-08-10T05:43:21.751Z,99.90
2022-08-10T05:46:19.144Z,99.90
2022-08-10T05:48:59.235Z,99.90
2022-08-10T05:51:30.254Z,99.90
2022-08-10T05:54:04.742Z,99.90
2022-08-10T05:56:54.870Z,99.90
2022-08-10T06:00:35.038Z,99.90
2022-08-10T06:02:32.109Z,99.90
2022-08-10T06:05:06.819Z,99.90
2022-08-10T06:07:38.862Z,99.90
2022-08-10T06:10:10.684Z,99.90
2022-08-10T06:12:54.043Z,99.90
2022-08-10T06:15:51.527Z,99.90
2022-08-10T06:18:15.626Z,99.90
2022-08-10T06:20:46.977Z,99.90
2022-08-10T06:23:15.468Z,99.90
2022-08-10T06:26:10.671Z,99.90
2022-08-10T06:28:38.948Z,99.90
2022-08-10T06:31:09.127Z,99.90
2022-08-10T06:33:39.325Z,99.90
2022-08-10T06:36:10.295Z,99.90
2022-08-10T06:38:40.568Z,99.90
2022-08-10T06:41:19.488Z,99.90
2022-08-10T06:43:58.084Z,99.90
2022-08-10T06:46:29.143Z,99.90
2022-08-10T06:49:01.533Z,99.90
2022-08-10T06:51:35.109Z,99.90
2022-08-10T06:54:07.008Z,99.90
2022-08-10T06:56:50.820Z,99.90
2022-08-10T06:59:38.516Z,99.90
2022-08-10T07:02:11.140Z,99.90
2022-08-10T07:04:45.719Z,99.90
2022-08-10T07:07:20.105Z,99.90
2022-08-10T07:09:50.540Z,99.90
2022-08-10T07:12:22.970Z,99.90
2022-08-10T07:14:54.630Z,99.90
2022-08-10T07:17:25.214Z,99.90
2022-08-10T07:19:56.392Z,99.90
2022-08-10T07:23:08.628Z,99.90
2022-08-10T07:25:21.065Z,99.90
2022-08-10T07:28:00.419Z,99.90
2022-08-10T07:30:33.141Z,99.90
2022-08-10T07:33:03.302Z,99.90
2022-08-10T07:35:42.976Z,99.90
2022-08-10T07:38:27.786Z,99.90
2022-08-10T07:41:00.106Z,99.90
2022-08-10T07:43:34.906Z,99.90
2022-08-10T07:46:06.371Z,99.90
2022-08-10T07:48:43.394Z,99.90
2022-08-10T07:51:13.986Z,99.90
2022-08-10T07:53:47.823Z,99.90
2022-08-10T07:56:38.710Z,99.90
2022-08-10T07:59:12.800Z,99.90
2022-08-10T08:01:48.392Z,99.90
2022-08-10T08:04:19.564Z,99.90
2022-08-10T08:06:50.234Z,99.90
2022-08-10T08:09:20.021Z,99.90
2022-08-10T08:11:52.636Z,99.90
2022-08-10T08:14:22.984Z,99.90
2022-08-10T08:16:56.367Z,99.90
2022-08-10T08:19:28.435Z,99.90
2022-08-10T08:24:04.465Z,99.90
2022-08-10T08:24:56.506Z,99.90
2022-08-10T08:27:26.517Z,99.90
2022-08-10T08:29:55.617Z,99.90
2022-08-10T08:32:28.073Z,99.90
2022-08-10T08:35:00.463Z,99.90
2022-08-10T08:38:29.623Z,99.90
2022-08-10T08:40:25.683Z,99.90
2022-08-10T08:43:29.796Z,99.90
2022-08-10T08:46:32.229Z,99.90
2022-08-10T08:50:08.524Z,99.90
2022-08-10T08:52:36.398Z,99.90
2022-08-10T08:56:04.546Z,99.90
2022-08-10T08:58:18.651Z,99.90
2022-08-10T09:01:04.222Z,99.90
2022-08-10T09:03:55.465Z,99.90
2022-08-10T09:06:53.546Z,99.90
2022-08-10T09:09:48.530Z,99.90
2022-08-10T09:12:42.107Z,99.90
2022-08-10T09:15:39.434Z,99.90
2022-08-10T09:18:21.780Z,99.90
2022-08-10T09:20:55.218Z,99.90
2022-08-10T09:24:01.521Z,99.90
2022-08-10T09:26:24.459Z,99.90
2022-08-10T09:29:11.522Z,99.90
2022-08-10T09:33:06.238Z,99.90
2022-08-10T09:36:23.163Z,99.90
2022-08-10T09:38:02.553Z,99.90
2022-08-10T09:40:59.900Z,99.90
2022-08-10T09:43:41.927Z,99.90
2022-08-10T09:46:21.578Z,99.90
2022-08-10T09:49:02.166Z,99.90
2022-08-10T09:51:46.017Z,99.70
2022-08-10T09:54:29.499Z,99.90
2022-08-10T09:57:43.400Z,98.70
2022-08-10T10:00:10.759Z,98.40
2022-08-10T10:02:58.941Z,98.30
2022-08-10T10:05:38.144Z,95.80
2022-08-10T10:08:16.688Z,95.40
2022-08-10T10:10:57.263Z,95.70
2022-08-10T10:14:01.424Z,96.20
2022-08-10T10:16:42.973Z,97.20
2022-08-10T10:19:27.088Z,96.10
2022-08-10T10:22:08.275Z,95.30
2022-08-10T10:24:44.795Z,93.70
2022-08-10T10:27:24.457Z,94.10
2022-08-10T10:30:01.975Z,94.00
2022-08-10T10:32:44.920Z,93.90
2022-08-10T10:35:24.551Z,94.20
2022-08-10T10:38:10.349Z,92.70
2022-08-10T10:40:46.361Z,92.70
2022-08-10T10:43:32.912Z,92.10
2022-08-10T10:46:23.323Z,92.80
2022-08-10T10:49:01.990Z,94.20
2022-08-10T10:51:39.354Z,94.10
2022-08-10T10:54:13.065Z,92.80
2022-08-10T10:56:54.368Z,91.60
2022-08-10T10:59:56.375Z,90.50
2022-08-10T11:02:40.033Z,90.20
2022-08-10T11:05:20.224Z,90.20
2022-08-10T11:07:55.818Z,86.90
2022-08-10T11:10:33.360Z,85.60
2022-08-10T11:14:25.985Z,85.40
2022-08-10T11:16:12.588Z,84.10
2022-08-10T11:18:54.347Z,86.10
2022-08-10T11:21:32.964Z,84.90
2022-08-10T11:24:49.018Z,83.50
2022-08-10T11:27:03.678Z,84.40
2022-08-10T11:29:37.343Z,82.30
2022-08-10T11:32:21.175Z,82.70
2022-08-10T11:35:11.688Z,83.30
2022-08-10T11:38:31.331Z,83.70
2022-08-10T11:40:52.329Z,80.90
2022-08-10T11:43:27.574Z,81.00
2022-08-10T11:46:07.837Z,81.70
2022-08-10T11:48:54.476Z,82.10
2022-08-10T11:51:32.440Z,82.90
2022-08-10T11:54:09.056Z,78.70
2022-08-10T11:56:46.864Z,79.20
2022-08-10T11:59:36.173Z,77.80
2022-08-10T12:02:07.934Z,76.00
2022-08-10T12:04:40.336Z,79.70
2022-08-10T12:08:54.982Z,77.90
2022-08-10T12:10:12.187Z,76.40
2022-08-10T12:12:46.871Z,79.20
2022-08-10T12:15:22.289Z,77.90
2022-08-10T12:17:55.765Z,77.30
2022-08-10T12:20:30.095Z,74.60
2022-08-10T12:23:12.418Z,74.60
2022-08-10T12:25:49.744Z,76.00
2022-08-10T12:29:08.823Z,77.20
2022-08-10T12:31:44.252Z,74.80
2022-08-10T12:34:20.961Z,76.00
2022-08-10T12:36:58.731Z,75.10
2022-08-10T12:39:31.249Z,76.00
2022-08-10T12:42:06.508Z,77.50
2022-08-10T12:44:41.937Z,82.00
2022-08-10T12:47:21.160Z,80.50
2022-08-10T12:50:29.242Z,77.50
2022-08-10T12:52:53.914Z,78.50
2022-08-10T12:55:26.641Z,80.10
2022-08-10T12:57:58.702Z,79.20
2022-08-10T13:00:33.358Z,79.00
2022-08-10T13:03:02.658Z,79.20
2022-08-10T13:06:02.454Z,79.20
2022-08-10T13:08:41.853Z,81.00
2022-08-10T13:12:33.764Z,82.50
2022-08-10T13:14:09.934Z,83.50
2022-08-10T13:16:38.971Z,84.40
2022-08-10T13:19:08.668Z,83.30
2022-08-10T13:21:39.977Z,83.10
2022-08-10T13:24:13.973Z,83.90
2022-08-10T13:27:25.048Z,81.20
2022-08-10T13:29:43.127Z,82.20
2022-08-10T13:32:13.034Z,80.70
2022-08-10T13:34:48.496Z,80.70
2022-08-10T13:37:21.434Z,81.30
2022-08-10T13:39:58.187Z,81.90
2022-08-10T13:42:34.995Z,81.20
2022-08-10T13:45:10.949Z,82.50
2022-08-10T13:47:49.345Z,83.30
2022-08-10T13:50:34.520Z,81.50
2022-08-10T13:53:14.916Z,82.60
2022-08-10T13:55:56.121Z,83.50
2022-08-10T13:58:30.718Z,81.90
2022-08-10T14:01:01.407Z,81.50
2022-08-10T14:03:35.714Z,84.30
2022-08-10T14:06:06.839Z,83.00
2022-08-10T14:08:36.806Z,81.00
2022-08-10T14:11:12.846Z,80.50
2022-08-10T14:13:46.484Z,84.60
2022-08-10T14:16:15.076Z,83.80
2022-08-10T14:18:45.903Z,81.30
2022-08-10T14:21:59.073Z,84.30
2022-08-10T14:24:35.618Z,81.10
2022-08-10T14:27:10.275Z,82.00
2022-08-10T14:29:45.393Z,84.40
2022-08-10T14:32:17.684Z,82.70
2022-08-10T14:36:16.074Z,83.80
2022-08-10T14:37:41.122Z,85.90
2022-08-10T14:40:15.980Z,81.80
2022-08-10T14:42:50.631Z,80.70
2022-08-10T14:45:26.862Z,83.20
2022-08-10T14:48:01.775Z,81.40
2022-08-10T14:50:39.653Z,82.50
2022-08-10T14:53:27.375Z,80.40
2022-08-10T14:56:01.001Z,81.40
2022-08-10T14:58:34.891Z,81.20
2022-08-10T15:01:07.100Z,81.10
2022-08-10T15:04:01.199Z,81.90
2022-08-10T15:06:31.423Z,81.10
2022-08-10T15:09:12.712Z,81.00
2022-08-10T15:12:11.916Z,81.10
2022-08-10T15:14:44.734Z,79.70
2022-08-10T15:17:26.563Z,80.30
2022-08-10T15:20:04.693Z,81.00
2022-08-10T15:22:50.480Z,80.40
2022-08-10T15:25:25.174Z,81.50
2022-08-10T15:28:05.241Z,79.60
2022-08-10T15:30:40.900Z,81.50
2022-08-10T15:34:03.043Z,79.80
2022-08-10T15:36:40.577Z,80.70
2022-08-10T15:40:20.416Z,79.60
2022-08-10T15:42:11.240Z,79.00
2022-08-10T15:44:42.118Z,80.30
2022-08-10T15:47:15.503Z,79.90
2022-08-10T15:49:53.185Z,79.00
2022-08-10T15:52:39.841Z,78.90
2022-08-10T15:55:41.271Z,80.20
2022-08-10T15:58:19.188Z,80.70
2022-08-10T16:00:56.533Z,79.50
2022-08-10T16:03:36.939Z,79.90
2022-08-10T16:06:22.160Z,80.70
2022-08-10T16:08:55.934Z,80.30
2022-08-10T16:11:38.100Z,79.30
2022-08-10T16:14:28.190Z,79.30
2022-08-10T16:16:58.171Z,78.50
2022-08-10T16:19:29.374Z,77.90
2022-08-10T16:22:05.193Z,78.70
2022-08-10T16:25:51.600Z,78.10
2022-08-10T16:28:43.480Z,79.20
2022-08-10T16:31:21.521Z,79.10
2022-08-10T16:33:52.873Z,78.20
2022-08-10T16:36:22.895Z,78.40
2022-08-10T16:38:54.282Z,78.90
2022-08-10T16:42:02.656Z,78.70
2022-08-10T16:44:22.279Z,78.50
2022-08-10T16:46:53.146Z,77.60
2022-08-10T16:49:25.453Z,77.40
2022-08-10T16:51:57.163Z,77.80
2022-08-10T16:54:33.616Z,77.90
2022-08-10T16:57:06.936Z,78.60
2022-08-10T16:59:40.027Z,78.50
2022-08-10T17:02:13.233Z,77.70
2022-08-10T17:04:47.763Z,77.40
2022-08-10T17:07:26.056Z,77.70
2022-08-10T17:10:07.953Z,77.80
2022-08-10T17:12:41.308Z,77.50
2022-08-10T17:15:11.912Z,78.20
2022-08-10T17:17:46.895Z,78.40
2022-08-10T17:20:31.943Z,78.80
2022-08-10T17:23:04.482Z,78.20
2022-08-10T17:25:45.988Z,78.70
2022-08-10T17:28:34.811Z,78.40
2022-08-10T17:31:24.103Z,78.70
2022-08-10T17:34:05.194Z,79.10
2022-08-10T17:36:40.339Z,78.70
2022-08-10T17:39:13.407Z,78.30
2022-08-10T17:41:46.251Z,79.40
2022-08-10T17:44:18.675Z,79.10
2022-08-10T17:46:49.495Z,79.60
2022-08-10T17:49:22.335Z,79.70
2022-08-10T17:51:54.891Z,79.60
2022-08-10T17:54:30.387Z,79.60
2022-08-10T17:57:05.510Z,79.80
2022-08-10T17:59:37.885Z,79.30
2022-08-10T18:02:12.835Z,80.10
2022-08-10T18:04:47.307Z,80.20
2022-08-10T18:07:18.071Z,80.30
2022-08-10T18:09:51.938Z,80.20
2022-08-10T18:12:30.884Z,80.00
2022-08-10T18:15:12.497Z,80.90
2022-08-10T18:17:45.849Z,81.00
2022-08-10T18:20:28.079Z,81.00
2022-08-10T18:22:58.751Z,81.50
2022-08-10T18:25:32.878Z,81.70
2022-08-10T18:28:05.784Z,81.90
2022-08-10T18:30:45.378Z,81.70
2022-08-10T18:33:16.397Z,81.50
2022-08-10T18:35:47.329Z,82.00
2022-08-10T18:38:19.297Z,81.90
2022-08-10T18:40:55.906Z,82.10
2022-08-10T18:44:07.125Z,81.90
2022-08-10T18:46:34.265Z,82.70
2022-08-10T18:49:07.457Z,85.20
2022-08-10T18:51:47.006Z,87.10
2022-08-10T18:54:39.912Z,88.70
2022-08-10T18:57:22.466Z,90.00
2022-08-10T19:00:09.765Z,90.50
2022-08-10T19:02:56.052Z,91.10
2022-08-10T19:05:38.289Z,90.80
2022-08-10T19:08:30.466Z,91.20
2022-08-10T19:11:06.549Z,91.40
2022-08-10T19:13:51.127Z,91.60
2022-08-10T19:16:35.702Z,91.70
2022-08-10T19:19:22.269Z,92.00
2022-08-10T19:21:59.449Z,91.70
2022-08-10T19:24:37.534Z,91.50
2022-08-10T19:27:14.081Z,91.90
2022-08-10T19:30:10.233Z,92.10
2022-08-10T19:33:09.660Z,91.90
2022-08-10T19:36:03.735Z,91.80
2022-08-10T19:38:49.440Z,91.90
2022-08-10T19:41:31.866Z,92.30
2022-08-10T19:44:06.974Z,92.30
2022-08-10T19:46:43.570Z,92.10
2022-08-10T19:49:21.320Z,92.30
2022-08-10T19:51:58.039Z,92.20
2022-08-10T19:54:37.408Z,92.30
2022-08-10T19:57:13.087Z,92.40
2022-08-10T20:00:06.367Z,92.70
2022-08-10T20:02:52.159Z,92.50
2022-08-10T20:05:30.727Z,93.10
2022-08-10T20:08:05.535Z,93.20
2022-08-10T20:10:46.694Z,93.60
2022-08-10T20:13:22.607Z,93.50
2022-08-10T20:15:59.072Z,93.50
2022-08-10T20:18:34.775Z,93.50
2022-08-10T20:21:12.247Z,93.80
2022-08-10T20:23:55.616Z,93.70
2022-08-10T20:26:28.152Z,94.00
2022-08-10T20:29:08.251Z,94.30
2022-08-10T20:31:43.100Z,94.10
2022-08-10T20:34:22.037Z,94.30
2022-08-10T20:37:00.967Z,94.40
2022-08-10T20:39:46.732Z,94.70
2022-08-10T20:42:22.755Z,94.50
2022-08-10T20:44:56.571Z,95.00
2022-08-10T20:47:53.765Z,95.00
2022-08-10T20:50:30.802Z,95.30
2022-08-10T20:53:04.203Z,95.40
2022-08-10T20:55:52.696Z,95.60
2022-08-10T20:59:07.121Z,95.70
2022-08-10T21:02:05.906Z,95.70
2022-08-10T21:04:49.455Z,95.70
2022-08-10T21:08:00.327Z,95.80
2022-08-10T21:10:39.768Z,96.20
2022-08-10T21:13:25.795Z,97.00
2022-08-10T21:16:02.382Z,96.90
2022-08-10T21:18:45.433Z,96.50
2022-08-10T21:21:45.394Z,96.50
2022-08-10T21:24:32.775Z,96.90
2022-08-10T21:27:15.362Z,97.20
2022-08-10T21:29:54.761Z,97.20
2022-08-10T21:32:40.047Z,97.10
2022-08-10T21:35:37.486Z,97.50
2022-08-10T21:38:12.964Z,98.10
2022-08-10T21:41:49.566Z,98.00
2022-08-10T21:44:45.509Z,98.20
2022-08-10T21:48:06.534Z,98.40
2022-08-10T21:51:02.238Z,98.70
2022-08-10T21:53:57.445Z,98.70
2022-08-10T21:56:50.659Z,99.00
2022-08-10T21:59:47.871Z,99.50
2022-08-10T22:02:50.429Z,99.10
2022-08-10T22:05:42.198Z,99.10
2022-08-10T22:08:33.241Z,99.50
2022-08-10T22:11:21.622Z,99.60
2022-08-10T22:14:09.775Z,99.50
2022-08-10T22:17:05.109Z,99.70
2022-08-10T22:19:55.131Z,99.80
2022-08-10T22:22:56.520Z,99.90
2022-08-10T22:25:55.947Z,99.90
2022-08-10T22:28:45.813Z,99.90
2022-08-10T22:31:47.490Z,99.90
2022-08-10T22:34:54.184Z,99.90
2022-08-10T22:37:58.602Z,99.90
2022-08-10T22:40:54.259Z,99.90
2022-08-10T22:43:45.795Z,99.90
2022-08-10T22:46:46.011Z,99.90
2022-08-10T22:49:20.909Z,99.90
2022-08-10T22:51:54.878Z,99.90
2022-08-10T22:54:46.359Z,99.90
2022-08-10T22:57:34.713Z,99.90
2022-08-10T23:00:15.315Z,99.90
2022-08-10T23:02:51.254Z,99.90
2022-08-10T23:05:29.846Z,99.90
2022-08-10T23:08:05.072Z,99.90
2022-08-10T23:10:41.275Z,99.90
2022-08-10T23:13:26.389Z,99.90
2022-08-10T23:16:24.617Z,99.90
2022-08-10T23:19:10.220Z,99.90
2022-08-10T23:22:03.383Z,99.90
2022-08-10T23:24:39.041Z,99.90
2022-08-10T23:27:13.227Z,99.90
2022-08-10T23:30:09.733Z,99.90
2022-08-10T23:32:45.201Z,99.90
2022-08-10T23:36:28.115Z,99.90
2022-08-10T23:38:06.939Z,99.90
2022-08-10T23:40:37.907Z,99.90
2022-08-10T23:43:08.312Z,99.90
2022-08-10T23:45:53.970Z,99.90
2022-08-10T23:48:27.310Z,99.90
2022-08-10T23:50:59.781Z,99.90
2022-08-10T23:53:33.740Z,99.90
2022-08-10T23:56:09.495Z,99.90
2022-08-10T23:58:49.462Z,99.90
